Time;durP1;ratioP1;P1;durP2;ratioP2;P2;SDS_P1;SDS_P2;PMS_P1;PMS_P2;Temp;Humidity;BMP_temperature;BMP_pressure;BME280_temperature;BME280_humidity;BME280_pressure;Samples;Min_cycle;Max_cycle;Signal;HPM_P1;HPM_P2
2021/12/21 00:00:27;;;;;;;72.47;51.05;;;17.30;55.50;;;;;;4933711;28;92309;-70
2021/12/21 00:02:53;;;;;;;73.38;51.50;;;17.20;55.40;;;;;;4940175;28;90523;-70
2021/12/21 00:05:21;;;;;;;70.28;51.05;;;17.20;55.40;;;;;;4934663;28;89716;-70
2021/12/21 00:07:52;;;;;;;72.60;51.78;;;17.20;55.70;;;;;;4940324;28;94687;-70
2021/12/21 00:10:19;;;;;;;71.72;51.33;;;17.20;55.70;;;;;;4933836;28;90597;-70
2021/12/21 00:15:25;;;;;;;72.80;51.20;;;17.10;55.60;;;;;;4937643;28;89805;-70
2021/12/21 00:18:01;;;;;;;70.53;51.35;;;17.10;55.50;;;;;;4936766;28;89712;-70
2021/12/21 00:25:20;;;;;;;70.47;51.00;;;17.00;55.50;;;;;;4936345;28;90156;-70
2021/12/21 00:27:48;;;;;;;72.03;51.15;;;17.00;55.70;;;;;;4937816;28;91424;-70
2021/12/21 00:30:14;;;;;;;70.90;50.72;;;17.00;55.60;;;;;;4934794;28;90626;-69
2021/12/21 00:32:41;;;;;;;70.28;51.13;;;17.00;55.80;;;;;;4937050;28;90392;-70
2021/12/21 00:35:07;;;;;;;72.93;51.42;;;17.00;55.70;;;;;;4941049;28;89980;-69
2021/12/21 00:37:33;;;;;;;72.78;51.72;;;17.00;55.60;;;;;;4945543;28;89264;-70
2021/12/21 00:39:59;;;;;;;71.35;51.83;;;16.90;55.60;;;;;;4939716;28;90828;-70
2021/12/21 00:42:25;;;;;;;70.28;51.08;;;16.90;55.60;;;;;;4946114;28;90813;-70
2021/12/21 00:44:51;;;;;;;71.72;51.28;;;16.90;55.60;;;;;;4943303;28;91848;-70
2021/12/21 00:47:17;;;;;;;72.22;50.95;;;16.90;55.70;;;;;;4944592;28;91024;-69
2021/12/21 00:49:46;;;;;;;71.68;51.20;;;16.80;55.50;;;;;;4941019;28;91308;-70
2021/12/21 00:52:15;;;;;;;70.22;50.80;;;16.80;55.80;;;;;;4940316;28;90408;-69
2021/12/21 00:54:41;;;;;;;71.50;51.28;;;16.80;55.90;;;;;;4942510;28;91185;-70
2021/12/21 00:57:08;;;;;;;71.50;50.58;;;16.80;55.80;;;;;;4939239;28;92278;-70
2021/12/21 00:59:34;;;;;;;75.40;51.78;;;16.80;55.80;;;;;;4934011;28;90487;-70
2021/12/21 01:02:00;;;;;;;72.78;51.53;;;16.80;55.80;;;;;;4939447;28;88908;-69
2021/12/21 01:04:35;;;;;;;72.28;51.50;;;16.80;55.90;;;;;;4942100;28;93634;-70
2021/12/21 01:07:07;;;;;;;71.85;51.55;;;16.80;55.60;;;;;;4939531;28;90424;-70
2021/12/21 01:12:34;;;;;;;69.50;51.17;;;16.80;55.60;;;;;;4942345;28;89485;-70
2021/12/21 01:21:26;;;;;;;72.05;50.78;;;16.70;55.70;;;;;;4939498;28;97717;-70
2021/12/21 01:23:55;;;;;;;71.55;50.90;;;16.70;55.50;;;;;;4942769;28;89384;-69
2021/12/21 01:29:06;;;;;;;;;;;16.60;55.50;;;;;;4939209;28;90235;-70
2021/12/21 01:36:47;;;;;;;69.93;50.30;;;16.60;55.60;;;;;;4939971;28;91465;-69
2021/12/21 01:39:50;;;;;;;72.10;51.05;;;16.60;55.70;;;;;;4942430;28;90550;-70
2021/12/21 01:42:13;;;;;;;70.93;50.85;;;16.60;55.80;;;;;;4942921;28;93372;-70
2021/12/21 01:49:57;;;;;;;70.90;51.50;;;16.50;55.40;;;;;;4945425;28;95457;-69
2021/12/21 01:52:26;;;;;;;70.38;50.63;;;16.50;55.80;;;;;;4944480;28;89580;-70
2021/12/21 01:54:52;;;;;;;70.80;51.38;;;16.50;55.60;;;;;;4945542;28;89775;-69
2021/12/21 01:57:18;;;;;;;69.97;50.85;;;16.50;55.50;;;;;;4938886;28;90680;-69
2021/12/21 01:59:46;;;;;;;69.95;50.92;;;16.40;55.50;;;;;;4938359;28;89438;-70
2021/12/21 02:02:16;;;;;;;70.78;51.35;;;16.40;55.80;;;;;;4935394;28;91053;-70
2021/12/21 02:04:43;;;;;;;72.97;51.88;;;16.40;55.70;;;;;;4943737;28;92872;-69
2021/12/21 02:07:09;;;;;;;72.22;51.42;;;16.40;56.30;;;;;;4942358;28;90146;-69
2021/12/21 02:09:37;;;;;;;72.07;51.80;;;16.40;55.50;;;;;;4944993;28;90150;-70
2021/12/21 02:12:10;;;;;;;68.45;50.80;;;16.40;55.60;;;;;;4938290;28;94048;-70
2021/12/21 02:14:37;;;;;;;69.35;51.00;;;16.40;55.40;;;;;;4941954;28;89700;-69
2021/12/21 02:17:37;;;;;;;68.88;51.25;;;16.40;55.60;;;;;;4939841;28;91058;-69
2021/12/21 02:20:06;;;;;;;71.57;51.05;;;16.40;55.60;;;;;;4943860;28;89334;-69
2021/12/21 02:22:35;;;;;;;69.15;51.22;;;16.40;55.60;;;;;;4939925;28;90682;-69
2021/12/21 02:25:33;;;;;;;70.60;51.10;;;16.30;55.60;;;;;;4945647;28;89643;-69
2021/12/21 02:30:48;;;;;;;69.88;50.92;;;16.30;55.50;;;;;;4942385;28;90577;-70
2021/12/21 02:33:14;;;;;;;;;;;16.30;55.50;;;;;;4939866;28;91597;-70
2021/12/21 02:35:41;;;;;;;68.68;50.75;;;16.30;55.50;;;;;;4945956;28;89727;-70
2021/12/21 02:38:07;;;;;;;68.28;50.65;;;16.30;55.60;;;;;;4937800;28;89970;-69
2021/12/21 02:40:33;;;;;;;69.95;50.40;;;16.30;55.60;;;;;;4942573;28;90937;-70
2021/12/21 02:42:59;;;;;;;70.13;51.20;;;16.30;55.50;;;;;;4943026;28;89503;-69
2021/12/21 02:45:25;;;;;;;69.95;51.00;;;16.20;55.50;;;;;;4938407;28;89737;-70
2021/12/21 02:47:50;;;;;;;69.82;50.88;;;16.20;55.60;;;;;;4941129;28;96080;-70
2021/12/21 02:50:16;;;;;;;69.38;50.20;;;16.20;55.50;;;;;;4942954;28;91430;-70
2021/12/21 02:52:42;;;;;;;69.95;51.10;;;16.20;55.60;;;;;;4944190;28;91071;-69
2021/12/21 02:55:09;;;;;;;71.18;51.05;;;16.20;55.60;;;;;;4944595;28;90396;-70
2021/12/21 02:57:35;;;;;;;69.45;50.72;;;16.20;55.70;;;;;;4941617;28;95056;-69
2021/12/21 03:00:01;;;;;;;69.78;51.30;;;16.20;55.40;;;;;;4935506;28;89987;-70
2021/12/21 03:02:29;;;;;;;69.05;50.95;;;16.20;55.50;;;;;;4943273;28;93021;-70
2021/12/21 03:04:55;;;;;;;69.43;50.95;;;16.20;55.40;;;;;;4941933;28;90171;-70
2021/12/21 03:10:11;;;;;;;70.50;51.42;;;16.10;55.40;;;;;;4943758;28;89113;-70
2021/12/21 03:15:15;;;;;;;70.70;50.85;;;16.10;55.40;;;;;;4937223;28;89715;-70
2021/12/21 03:17:41;;;;;;;70.70;50.67;;;16.10;55.20;;;;;;4940072;28;90097;-69
2021/12/21 03:20:07;;;;;;;70.00;50.72;;;16.10;55.40;;;;;;4941015;28;89184;-69
2021/12/21 03:22:32;;;;;;;70.32;50.92;;;16.10;55.60;;;;;;4941550;28;97718;-70
2021/12/21 03:24:58;;;;;;;68.78;50.25;;;16.10;55.40;;;;;;4940694;28;90235;-69
2021/12/21 03:27:24;;;;;;;70.50;50.58;;;16.10;55.40;;;;;;4938324;28;89876;-69
2021/12/21 03:29:49;;;;;;;69.43;50.97;;;16.10;55.40;;;;;;4933317;28;90346;-70
2021/12/21 03:32:15;;;;;;;69.63;50.90;;;16.10;55.40;;;;;;4936861;28;89255;-69
2021/12/21 03:34:41;;;;;;;68.40;50.65;;;16.00;55.50;;;;;;4934977;28;89494;-70
2021/12/21 03:37:12;;;;;;;69.25;50.97;;;16.00;55.50;;;;;;4944352;28;89877;-69
2021/12/21 03:39:39;;;;;;;67.40;50.58;;;16.00;55.40;;;;;;4953664;28;92176;-69
2021/12/21 03:42:05;;;;;;;70.18;51.17;;;16.00;55.40;;;;;;4941433;28;91198;-70
2021/12/21 03:44:31;;;;;;;69.78;50.92;;;16.00;55.30;;;;;;4936201;28;90446;-70
2021/12/21 03:46:57;;;;;;;69.75;50.72;;;16.00;55.30;;;;;;4933586;28;93264;-69
2021/12/21 03:51:59;;;;;;;67.88;50.40;;;16.00;55.60;;;;;;4940549;28;90278;-69
2021/12/21 03:54:25;;;;;;;69.80;50.13;;;15.90;55.30;;;;;;4937175;28;93277;-70
2021/12/21 03:56:52;;;;;;;68.82;50.58;;;15.90;55.20;;;;;;4941045;28;90817;-70
2021/12/21 03:59:20;;;;;;;67.70;50.20;;;15.90;55.40;;;;;;4932634;28;89639;-69
2021/12/21 04:01:46;;;;;;;67.63;50.20;;;15.90;55.30;;;;;;4939451;28;90376;-69
2021/12/21 04:04:12;;;;;;;67.65;50.55;;;15.90;55.20;;;;;;4936597;28;89948;-69
2021/12/21 04:06:38;;;;;;;68.05;50.45;;;15.90;55.00;;;;;;4950161;28;92333;-69
2021/12/21 04:09:06;;;;;;;71.63;51.25;;;15.90;55.10;;;;;;4945007;28;89588;-70
2021/12/21 04:11:32;;;;;;;69.10;50.45;;;15.90;55.30;;;;;;4946240;28;89368;-69
2021/12/21 04:13:59;;;;;;;68.63;50.67;;;15.90;55.30;;;;;;4934522;28;89923;-69
2021/12/21 04:16:24;;;;;;;69.68;50.53;;;15.90;55.00;;;;;;4944148;28;91677;-69
2021/12/21 04:18:50;;;;;;;70.43;50.67;;;15.80;55.10;;;;;;4944257;28;89466;-70
2021/12/21 04:21:16;;;;;;;68.65;50.72;;;15.90;55.20;;;;;;4946380;28;89619;-69
2021/12/21 04:23:42;;;;;;;70.05;50.42;;;15.90;55.30;;;;;;4950796;28;88773;-69
2021/12/21 04:26:10;;;;;;;68.32;50.55;;;15.90;55.00;;;;;;4941466;28;89299;-69
2021/12/21 04:28:35;;;;;;;67.82;50.25;;;15.80;55.00;;;;;;4939991;28;90356;-69
2021/12/21 04:31:02;;;;;;;68.07;50.88;;;15.80;55.10;;;;;;4941797;28;91096;-70
2021/12/21 04:33:28;;;;;;;67.63;50.38;;;15.80;55.00;;;;;;4940390;28;90240;-69
2021/12/21 04:35:54;;;;;;;68.88;50.50;;;15.80;54.90;;;;;;4948587;28;89898;-69
2021/12/21 04:40:48;;;;;;;67.53;50.08;;;15.90;54.90;;;;;;4945235;28;91823;-70
2021/12/21 04:43:15;;;;;;;68.20;50.35;;;15.90;54.80;;;;;;4941616;28;90242;-70
2021/12/21 04:45:40;;;;;;;71.35;50.92;;;16.00;54.70;;;;;;4941523;28;89494;-69
2021/12/21 04:48:06;;;;;;;67.43;50.40;;;16.10;54.60;;;;;;4950095;28;89803;-70
2021/12/21 04:50:32;;;;;;;70.15;50.92;;;16.10;54.50;;;;;;4940711;28;89597;-69
2021/12/21 04:52:59;;;;;;;69.38;50.65;;;16.20;54.40;;;;;;4940982;28;89484;-70
2021/12/21 04:55:24;;;;;;;72.63;51.13;;;16.30;54.00;;;;;;4945897;28;91591;-70
2021/12/21 04:57:50;;;;;;;69.35;50.78;;;16.40;53.90;;;;;;4942922;28;90292;-69
2021/12/21 05:00:16;;;;;;;69.00;51.15;;;16.40;53.60;;;;;;4936941;28;94669;-69
2021/12/21 05:02:42;;;;;;;72.68;50.58;;;16.50;53.70;;;;;;4943527;28;89333;-70
2021/12/21 05:05:08;;;;;;;68.03;50.67;;;16.60;53.40;;;;;;4940895;28;90842;-69
2021/12/21 05:07:36;;;;;;;71.57;50.78;;;16.60;53.20;;;;;;4939271;28;91568;-70
2021/12/21 05:10:04;;;;;;;71.38;50.97;;;16.60;53.20;;;;;;4942031;28;89626;-69
2021/12/21 05:12:30;;;;;;;69.78;50.88;;;16.60;53.10;;;;;;4942401;28;97012;-69
2021/12/21 05:14:56;;;;;;;69.88;50.65;;;16.60;52.90;;;;;;4940066;28;89399;-70
2021/12/21 05:17:22;;;;;;;68.63;50.88;;;16.60;52.70;;;;;;4936989;28;89559;-69
2021/12/21 05:19:48;;;;;;;69.13;50.63;;;16.60;52.80;;;;;;4942086;28;90932;-69
2021/12/21 05:22:15;;;;;;;67.45;50.15;;;16.70;53.00;;;;;;4943563;28;89248;-70
2021/12/21 05:24:41;;;;;;;69.28;50.67;;;16.70;52.70;;;;;;4944895;28;89757;-69
2021/12/21 05:27:09;;;;;;;68.68;50.72;;;16.70;53.30;;;;;;4940454;28;89894;-69
2021/12/21 05:29:35;;;;;;;71.28;50.85;;;16.70;52.80;;;;;;4941464;28;90839;-69
2021/12/21 05:32:01;;;;;;;70.85;50.22;;;16.70;52.50;;;;;;4937419;28;89676;-70
2021/12/21 05:34:28;;;;;;;69.13;50.05;;;16.60;52.50;;;;;;4940155;28;93679;-70
2021/12/21 05:36:54;;;;;;;68.50;50.13;;;16.60;52.80;;;;;;4939865;28;89526;-70
2021/12/21 05:39:26;;;;;;;71.28;50.63;;;16.60;52.90;;;;;;4941620;28;91111;-70
2021/12/21 05:41:54;;;;;;;68.28;50.28;;;16.50;53.00;;;;;;4943145;28;90954;-69
2021/12/21 05:44:23;;;;;;;73.13;50.72;;;16.60;53.10;;;;;;4939411;28;90995;-69
2021/12/21 05:46:53;;;;;;;67.60;50.58;;;16.80;53.40;;;;;;4942121;28;90523;-70
2021/12/21 05:49:20;;;;;;;68.43;50.40;;;16.90;52.70;;;;;;4944511;28;89242;-70
2021/12/21 05:51:47;;;;;;;70.45;51.28;;;17.00;52.60;;;;;;4943061;28;90056;-70
2021/12/21 05:54:13;;;;;;;70.82;50.92;;;17.10;52.60;;;;;;4943645;28;92528;-69
2021/12/21 05:56:39;;;;;;;69.53;50.38;;;17.20;52.60;;;;;;4947382;28;89775;-70
2021/12/21 05:59:05;;;;;;;70.10;51.03;;;17.30;52.00;;;;;;4931514;28;89711;-70
2021/12/21 06:01:33;;;;;;;70.55;51.58;;;17.40;51.80;;;;;;4938965;28;89496;-70
2021/12/21 06:04:00;;;;;;;68.90;50.80;;;17.50;51.70;;;;;;4935555;28;89709;-70
2021/12/21 06:06:26;;;;;;;71.10;50.78;;;17.50;51.60;;;;;;4937554;28;89511;-69
2021/12/21 06:08:54;;;;;;;74.28;51.30;;;17.60;51.60;;;;;;4935347;28;91920;-69
2021/12/21 06:11:21;;;;;;;72.00;50.83;;;17.70;51.10;;;;;;4928637;28;89960;-70
2021/12/21 06:27:30;;;;;;;71.43;51.10;;;17.90;50.70;;;;;;4927556;28;89738;-69
2021/12/21 06:29:57;;;;;;;74.93;51.58;;;18.00;50.50;;;;;;4914716;28;91185;-72
2021/12/21 06:32:22;;;;;;;75.78;51.25;;;17.90;50.90;;;;;;4934254;28;90426;-71
2021/12/21 06:34:48;;;;;;;70.68;51.38;;;17.80;51.90;;;;;;4924973;28;91081;-71
2021/12/21 06:37:14;;;;;;;73.95;51.30;;;17.80;51.70;;;;;;4913015;28;94608;-71
2021/12/21 06:39:40;;;;;;;77.03;51.75;;;17.80;51.60;;;;;;4904487;28;93304;-71
2021/12/21 06:42:06;;;;;;;73.22;51.40;;;17.80;51.80;;;;;;4906426;28;91504;-71
2021/12/21 06:44:33;;;;;;;75.50;51.22;;;17.80;50.90;;;;;;4915824;28;90517;-71
2021/12/21 06:52:16;;;;;;;76.32;51.15;;;17.50;50.80;;;;;;4916381;28;90153;-71
2021/12/21 06:54:42;;;;;;;78.47;51.72;;;17.50;50.80;;;;;;4908920;28;90337;-72
2021/12/21 06:57:07;;;;;;;74.40;51.90;;;17.50;50.90;;;;;;4918537;28;94190;-71
2021/12/21 06:59:33;;;;;;;73.07;51.78;;;17.40;50.60;;;;;;4911849;28;94366;-71
2021/12/21 07:01:59;;;;;;;78.32;51.58;;;17.40;50.20;;;;;;4906627;28;98645;-71
2021/12/21 07:04:25;;;;;;;75.25;51.63;;;17.40;50.80;;;;;;4917134;28;89651;-71
2021/12/21 07:06:53;;;;;;;74.13;52.00;;;17.40;50.70;;;;;;4922650;28;90452;-71
2021/12/21 07:09:29;;;;;;;76.68;51.88;;;17.40;51.10;;;;;;4910428;28;90443;-71
2021/12/21 07:12:20;;;;;;;74.57;51.55;;;17.40;50.80;;;;;;4916698;28;90405;-72
2021/12/21 07:20:20;;;;;;;76.20;51.78;;;17.40;51.30;;;;;;4924900;28;90516;-71
2021/12/21 07:22:45;;;;;;;74.30;52.05;;;17.40;51.60;;;;;;4916214;28;90494;-71
2021/12/21 07:25:11;;;;;;;76.82;52.00;;;17.40;51.40;;;;;;4909737;28;93984;-70
2021/12/21 07:27:37;;;;;;;77.28;52.05;;;17.40;51.60;;;;;;4911585;28;91574;-70
2021/12/21 07:30:05;;;;;;;77.32;52.28;;;17.40;51.80;;;;;;4929553;28;93949;-72
2021/12/21 07:32:31;;;;;;;76.10;52.30;;;17.40;51.60;;;;;;4922065;28;89974;-71
2021/12/21 07:34:57;;;;;;;74.88;52.35;;;17.40;51.20;;;;;;4915972;28;91161;-71
2021/12/21 07:37:25;;;;;;;75.65;52.72;;;17.40;51.50;;;;;;4920396;28;90714;-71
2021/12/21 07:39:51;;;;;;;74.40;51.67;;;17.40;50.80;;;;;;4917929;28;89554;-71
2021/12/21 07:42:17;;;;;;;74.22;52.03;;;17.50;51.50;;;;;;4910091;28;91346;-71
2021/12/21 07:44:43;;;;;;;74.45;51.72;;;17.50;51.20;;;;;;4933943;28;90717;-71
2021/12/21 07:47:08;;;;;;;74.30;52.55;;;17.60;51.30;;;;;;4934112;28;98704;-71
2021/12/21 07:49:34;;;;;;;77.05;52.22;;;17.50;51.00;;;;;;4945529;28;95696;-71
2021/12/21 07:52:00;;;;;;;75.80;52.70;;;17.60;51.70;;;;;;4945595;28;89327;-71
2021/12/21 07:54:25;;;;;;;72.88;52.38;;;17.60;51.30;;;;;;4938392;28;90268;-71
2021/12/21 07:56:51;;;;;;;77.00;53.10;;;17.60;50.90;;;;;;4937026;28;91723;-71
2021/12/21 07:59:17;;;;;;;74.18;52.58;;;17.60;50.90;;;;;;4940621;28;90403;-71
2021/12/21 08:01:43;;;;;;;78.97;52.83;;;17.60;51.00;;;;;;4939378;28;91395;-70
2021/12/21 08:04:09;;;;;;;75.47;52.55;;;17.50;51.20;;;;;;4931088;28;90690;-71
2021/12/21 08:06:36;;;;;;;79.05;52.35;;;17.50;51.60;;;;;;4937056;28;89668;-71
2021/12/21 08:09:04;;;;;;;75.80;52.47;;;17.50;51.40;;;;;;4934732;28;90768;-70
2021/12/21 08:14:03;;;;;;;76.78;52.80;;;17.60;51.10;;;;;;4932541;28;99118;-71
2021/12/21 08:16:29;;;;;;;74.25;52.47;;;17.60;51.20;;;;;;4930065;28;90146;-72
2021/12/21 08:18:55;;;;;;;75.88;52.75;;;17.60;51.30;;;;;;4938105;28;91154;-74
2021/12/21 08:21:22;;;;;;;74.75;52.22;;;17.60;51.10;;;;;;4936057;28;91212;-71
2021/12/21 08:23:48;;;;;;;76.55;52.08;;;17.60;50.30;;;;;;4939258;28;91348;-72
2021/12/21 08:26:13;;;;;;;77.55;52.67;;;17.50;49.70;;;;;;4933286;28;90258;-72
2021/12/21 08:28:39;;;;;;;74.32;52.38;;;17.50;50.60;;;;;;4928952;28;90211;-71
2021/12/21 08:31:10;;;;;;;78.88;52.65;;;17.50;51.20;;;;;;4934704;28;89619;-70
2021/12/21 08:33:36;;;;;;;76.45;52.72;;;17.50;50.20;;;;;;4939976;28;90468;-71
2021/12/21 08:36:03;;;;;;;77.30;52.75;;;17.30;50.10;;;;;;4935670;28;90749;-73
2021/12/21 08:38:31;;;;;;;79.40;53.22;;;17.10;50.30;;;;;;4927445;28;91805;-74
2021/12/21 08:40:58;;;;;;;79.93;53.20;;;17.00;51.10;;;;;;4944582;28;90531;-74
2021/12/21 08:43:25;;;;;;;77.10;53.38;;;16.90;50.60;;;;;;4931226;28;90791;-73
2021/12/21 08:45:52;;;;;;;80.13;53.65;;;16.80;51.40;;;;;;4949717;28;96092;-73
2021/12/21 08:48:19;;;;;;;77.65;52.83;;;16.90;51.40;;;;;;4935560;28;92666;-73
2021/12/21 08:50:47;;;;;;;78.72;53.72;;;16.70;50.20;;;;;;4945940;28;90274;-73
2021/12/21 08:53:14;;;;;;;82.43;54.08;;;16.60;50.70;;;;;;4934176;28;90436;-72
2021/12/21 08:55:41;;;;;;;78.38;54.17;;;16.60;50.60;;;;;;4946531;28;89827;-72
2021/12/21 08:58:07;;;;;;;78.97;53.40;;;16.70;50.80;;;;;;4940769;28;90411;-73
2021/12/21 09:00:33;;;;;;;74.05;52.78;;;16.70;50.60;;;;;;4902744;28;92719;-74
2021/12/21 09:02:58;;;;;;;86.93;53.35;;;16.90;51.40;;;;;;4920829;28;93753;-74
2021/12/21 09:05:27;;;;;;;81.90;53.15;;;16.90;51.10;;;;;;4909320;28;91014;-73
2021/12/21 09:07:54;;;;;;;77.82;53.28;;;17.00;51.40;;;;;;4907901;28;91488;-73
2021/12/21 09:10:21;;;;;;;85.65;53.63;;;17.20;51.80;;;;;;4900633;28;93474;-73
2021/12/21 09:12:48;;;;;;;79.68;53.10;;;17.20;51.80;;;;;;4908601;28;91462;-73
2021/12/21 09:15:16;;;;;;;81.65;53.60;;;17.30;52.00;;;;;;4910352;28;89897;-74
2021/12/21 09:17:44;;;;;;;80.35;53.65;;;17.40;51.80;;;;;;4919050;28;91512;-73
2021/12/21 09:20:15;;;;;;;87.88;53.38;;;17.40;51.70;;;;;;4943260;28;90034;-75
2021/12/21 09:22:41;;;;;;;78.35;52.97;;;17.40;52.00;;;;;;4936606;28;90375;-75
2021/12/21 09:25:07;;;;;;;79.20;53.63;;;17.50;52.20;;;;;;4939404;28;90561;-75
2021/12/21 09:27:33;;;;;;;80.93;53.65;;;17.50;52.00;;;;;;4941085;28;95785;-74
2021/12/21 09:29:58;;;;;;;83.03;53.58;;;17.60;51.90;;;;;;4939110;28;94079;-74
2021/12/21 09:32:25;;;;;;;77.80;53.47;;;17.60;51.90;;;;;;4928818;28;90379;-73
2021/12/21 09:34:51;;;;;;;79.15;53.83;;;17.60;52.10;;;;;;4932021;28;91635;-73
2021/12/21 09:37:20;;;;;;;81.90;52.95;;;17.70;52.20;;;;;;4931670;28;90828;-74
2021/12/21 09:39:55;;;;;;;78.68;53.35;;;17.60;51.70;;;;;;4933687;28;90014;-74
2021/12/21 09:42:26;;;;;;;82.80;53.88;;;17.70;52.10;;;;;;4943451;28;90474;-75
2021/12/21 09:44:52;;;;;;;;;;;17.60;52.50;;;;;;4962061;28;92013;-74
2021/12/21 09:47:18;;;;;;;79.95;53.47;;;17.70;52.00;;;;;;4942261;28;91245;-73
2021/12/21 09:49:45;;;;;;;80.32;53.60;;;17.70;51.80;;;;;;4941995;28;90208;-73
2021/12/21 09:52:13;;;;;;;78.85;53.13;;;17.70;52.00;;;;;;4946970;28;92264;-72
2021/12/21 09:54:40;;;;;;;77.65;53.33;;;17.60;52.30;;;;;;4943147;28;90189;-73
2021/12/21 09:57:06;;;;;;;77.93;53.20;;;17.70;52.00;;;;;;4943479;28;90184;-74
2021/12/21 09:59:32;;;;;;;77.70;53.20;;;17.60;51.60;;;;;;4933805;28;89949;-74
2021/12/21 10:01:59;;;;;;;79.10;53.08;;;17.70;51.10;;;;;;4925200;28;94327;-74
2021/12/21 10:04:26;;;;;;;78.80;53.67;;;17.60;50.70;;;;;;4937467;28;90024;-75
2021/12/21 10:06:54;;;;;;;78.25;53.28;;;17.60;51.40;;;;;;4940422;28;94065;-73
2021/12/21 10:09:23;;;;;;;77.63;53.25;;;17.60;51.60;;;;;;4953763;28;89606;-74
2021/12/21 10:11:50;;;;;;;78.32;53.47;;;17.60;50.80;;;;;;4936757;28;91191;-74
2021/12/21 10:14:23;;;;;;;78.80;53.78;;;17.60;50.90;;;;;;4945874;28;90984;-74
2021/12/21 10:16:59;;;;;;;81.60;53.58;;;17.60;51.10;;;;;;4933509;28;91182;-74
2021/12/21 10:19:25;;;;;;;77.75;53.88;;;17.70;51.20;;;;;;4941138;28;89905;-74
2021/12/21 10:21:51;;;;;;;76.40;53.67;;;17.70;51.40;;;;;;4933437;28;90725;-74
2021/12/21 10:24:28;;;;;;;79.90;53.33;;;17.80;51.90;;;;;;4954042;28;90497;-73
2021/12/21 10:27:06;;;;;;;74.35;52.95;;;17.80;51.70;;;;;;4931324;28;96290;-74
2021/12/21 10:29:47;;;;;;;78.60;52.88;;;17.90;51.70;;;;;;4940571;28;89891;-71
2021/12/21 10:32:20;;;;;;;;;;;18.00;51.50;;;;;;4939468;28;90307;-73
2021/12/21 10:35:12;;;;;;;76.00;53.10;;;18.10;51.50;;;;;;4939561;28;89339;-73
2021/12/21 10:37:40;;;;;;;76.28;53.33;;;18.20;51.50;;;;;;4945825;28;89885;-72
2021/12/21 10:40:09;;;;;;;76.38;53.25;;;18.20;51.10;;;;;;4932486;28;90842;-73
2021/12/21 10:42:45;;;;;;;76.07;53.15;;;18.20;50.90;;;;;;4931273;28;90895;-74
2021/12/21 10:45:11;;;;;;;78.30;53.45;;;18.30;51.00;;;;;;4930323;28;94181;-73
2021/12/21 10:47:37;;;;;;;76.03;53.15;;;18.40;50.60;;;;;;4931776;28;91742;-71
2021/12/21 10:50:05;;;;;;;77.60;53.33;;;18.50;50.90;;;;;;4934710;28;90167;-71
2021/12/21 10:52:31;;;;;;;78.55;53.78;;;18.50;50.60;;;;;;4956091;28;93530;-70
2021/12/21 10:54:57;;;;;;;79.72;54.17;;;18.50;50.30;;;;;;4944784;28;91407;-71
2021/12/21 10:57:35;;;;;;;77.40;53.85;;;18.50;49.90;;;;;;4940236;28;90266;-70
2021/12/21 11:00:14;;;;;;;77.97;53.60;;;18.50;50.50;;;;;;4946615;28;90073;-71
2021/12/21 11:02:40;;;;;;;80.32;53.65;;;18.60;51.00;;;;;;4944881;28;90304;-71
2021/12/21 11:05:16;;;;;;;78.22;53.40;;;18.50;49.90;;;;;;4940765;28;91153;-71
2021/12/21 11:10:16;;;;;;;76.85;53.83;;;18.50;50.00;;;;;;4948686;28;90474;-71
2021/12/21 11:12:42;;;;;;;75.53;53.28;;;18.50;50.10;;;;;;4936500;28;90820;-70
2021/12/21 11:15:11;;;;;;;76.07;53.25;;;18.50;50.10;;;;;;4936667;28;90426;-71
2021/12/21 11:17:37;;;;;;;77.65;53.45;;;18.40;50.40;;;;;;4941845;28;89490;-71
2021/12/21 11:20:04;;;;;;;78.13;53.63;;;18.50;50.30;;;;;;4939267;28;89916;-70
2021/12/21 11:22:32;;;;;;;78.20;53.38;;;18.70;51.10;;;;;;4958200;28;91136;-71
2021/12/21 11:24:59;;;;;;;77.32;54.13;;;18.70;49.80;;;;;;4948051;28;89820;-71
2021/12/21 11:27:28;;;;;;;77.82;53.88;;;18.70;50.10;;;;;;4938260;28;92150;-71
2021/12/21 11:29:59;;;;;;;77.05;53.90;;;18.80;49.70;;;;;;4940125;28;89856;-71
2021/12/21 11:32:26;;;;;;;76.03;53.47;;;18.80;50.00;;;;;;4941145;28;91343;-71
2021/12/21 11:37:42;;;;;;;77.63;53.63;;;18.80;49.70;;;;;;4945029;28;90397;-71
2021/12/21 11:40:11;;;;;;;81.17;53.63;;;18.80;49.90;;;;;;4937378;28;90336;-70
2021/12/21 11:42:46;;;;;;;75.88;53.45;;;18.70;49.60;;;;;;4937452;28;90170;-71
2021/12/21 11:45:14;;;;;;;77.15;53.17;;;18.70;49.80;;;;;;4941594;28;91627;-70
2021/12/21 11:48:00;;;;;;;78.53;52.97;;;18.70;49.60;;;;;;4948252;28;89973;-71
2021/12/21 11:50:27;;;;;;;80.07;53.00;;;18.60;49.90;;;;;;4946378;28;89774;-71
2021/12/21 11:52:59;;;;;;;75.30;52.70;;;18.70;50.00;;;;;;4937932;28;93736;-70
2021/12/21 11:55:26;;;;;;;75.88;53.30;;;18.70;49.80;;;;;;4961454;28;91176;-71
2021/12/21 11:57:57;;;;;;;75.75;53.08;;;18.70;49.40;;;;;;4942384;28;90864;-71
2021/12/21 12:00:29;;;;;;;76.85;53.45;;;18.80;49.50;;;;;;4935748;28;89799;-71
2021/12/21 12:03:10;;;;;;;74.60;52.92;;;18.80;49.00;;;;;;4942779;28;92742;-71
2021/12/21 12:05:35;;;;;;;75.68;53.22;;;18.70;49.40;;;;;;4944363;28;90768;-71
2021/12/21 12:08:08;;;;;;;77.53;53.63;;;18.70;49.30;;;;;;4940628;28;90762;-71
2021/12/21 12:10:45;;;;;;;76.25;52.75;;;18.60;49.20;;;;;;4941843;28;90267;-71
2021/12/21 12:13:13;;;;;;;76.43;53.22;;;18.50;49.30;;;;;;4937335;28;92113;-71
2021/12/21 12:15:52;;;;;;;75.40;52.95;;;18.50;49.50;;;;;;4944942;28;89993;-71
2021/12/21 12:18:45;;;;;;;74.95;52.90;;;18.50;49.50;;;;;;4938755;28;90584;-71
2021/12/21 12:21:20;;;;;;;73.75;52.80;;;18.50;49.70;;;;;;4941257;28;89798;-71
2021/12/21 12:23:54;;;;;;;75.85;53.13;;;18.50;49.30;;;;;;4938133;28;92441;-71
2021/12/21 12:26:26;;;;;;;75.13;52.97;;;18.40;49.60;;;;;;4930748;28;91765;-71
2021/12/21 12:28:53;;;;;;;75.97;52.55;;;18.40;49.40;;;;;;4932308;28;90988;-70
2021/12/21 12:31:38;;;;;;;75.60;52.55;;;18.40;49.50;;;;;;4938178;28;89932;-70
2021/12/21 12:34:05;;;;;;;75.47;52.78;;;18.30;49.40;;;;;;4934184;28;93837;-70
2021/12/21 12:36:35;;;;;;;75.20;52.70;;;18.30;49.80;;;;;;4938145;28;90047;-70
2021/12/21 12:39:01;;;;;;;72.75;52.35;;;18.50;49.70;;;;;;4916688;28;90790;-72
2021/12/21 12:41:26;;;;;;;74.03;52.78;;;18.40;49.20;;;;;;4934987;28;89975;-73
2021/12/21 12:43:52;;;;;;;76.10;52.22;;;18.50;49.90;;;;;;4940838;28;89477;-72
2021/12/21 12:46:26;;;;;;;76.80;52.78;;;18.50;50.10;;;;;;4941382;28;94830;-71
2021/12/21 12:48:52;;;;;;;77.75;53.10;;;18.70;50.10;;;;;;4939063;28;91205;-72
2021/12/21 12:51:36;;;;;;;75.05;53.40;;;18.70;50.20;;;;;;4943581;28;90203;-73
2021/12/21 12:54:16;;;;;;;76.13;53.03;;;18.70;50.40;;;;;;4938614;28;89761;-73
2021/12/21 12:56:41;;;;;;;75.18;52.60;;;18.80;50.00;;;;;;4940059;28;96220;-73
2021/12/21 12:59:07;;;;;;;77.65;52.70;;;18.80;49.80;;;;;;4940175;28;90003;-73
2021/12/21 13:01:41;;;;;;;74.53;52.80;;;18.90;49.80;;;;;;4923424;28;97915;-72
2021/12/21 13:04:10;;;;;;;74.78;52.63;;;19.00;50.00;;;;;;4943145;28;91067;-73
2021/12/21 13:06:37;;;;;;;74.80;52.45;;;19.10;49.70;;;;;;4931225;28;90361;-73
2021/12/21 13:09:10;;;;;;;72.50;52.58;;;19.10;50.20;;;;;;4929781;28;92930;-72
2021/12/21 13:11:40;;;;;;;74.63;52.95;;;19.20;50.10;;;;;;4927543;28;90871;-72
2021/12/21 13:14:08;;;;;;;74.35;52.58;;;19.50;50.20;;;;;;4950525;28;93634;-72
2021/12/21 13:16:35;;;;;;;78.35;52.58;;;19.50;49.70;;;;;;4933200;28;91217;-72
2021/12/21 13:19:03;;;;;;;77.75;53.17;;;19.50;49.20;;;;;;4933980;28;90366;-71
2021/12/21 13:21:41;;;;;;;74.75;52.35;;;19.40;49.20;;;;;;4942371;28;89970;-74
2021/12/21 13:24:10;;;;;;;74.35;52.50;;;19.50;50.10;;;;;;4935579;28;90167;-73
2021/12/21 13:26:40;;;;;;;75.90;52.75;;;19.40;49.60;;;;;;4942698;28;90615;-73
2021/12/21 13:29:10;;;;;;;73.75;52.25;;;19.40;49.70;;;;;;4938298;28;93952;-71
2021/12/21 13:31:37;;;;;;;76.28;52.13;;;19.40;50.20;;;;;;4938691;28;90164;-73
2021/12/21 13:34:04;;;;;;;74.18;52.63;;;19.40;49.60;;;;;;4938377;28;90575;-71
2021/12/21 13:36:34;;;;;;;76.50;52.72;;;19.40;49.40;;;;;;4936546;28;90834;-71
2021/12/21 13:39:13;;;;;;;77.07;53.05;;;19.40;49.90;;;;;;4931089;28;93139;-72
2021/12/21 13:41:56;;;;;;;75.90;52.65;;;19.50;49.60;;;;;;4941854;28;90185;-72
2021/12/21 13:44:26;;;;;;;78.97;52.95;;;19.40;49.50;;;;;;4932191;28;95084;-72
2021/12/21 13:46:53;;;;;;;76.95;52.78;;;19.40;49.80;;;;;;4929240;28;90828;-70
2021/12/21 13:49:19;;;;;;;76.63;53.17;;;19.40;49.60;;;;;;4933140;28;90634;-71